Time;durP1;ratioP1;P1;durP2;ratioP2;P2;SDS_P1;SDS_P2;PMS_P1;PMS_P2;Temp;Humidity;BMP_temperature;BMP_pressure;BME280_temperature;BME280_humidity;BME280_pressure;Samples;Min_cycle;Max_cycle;Signal;HPM_P1;HPM_P2
2022/10/28 00:02:00;;;;;;;19.05;9.27;;;;;;;23.95;54.61;101857.81;4955170;28;20094;-75
2022/10/28 00:04:25;;;;;;;23.48;10.93;;;;;;;23.97;54.60;101855.59;4954517;28;20553;-74
2022/10/28 00:06:51;;;;;;;16.15;8.40;;;;;;;23.89;54.72;101848.00;4936629;29;20043;-77
2022/10/28 00:09:16;;;;;;;15.90;8.82;;;;;;;23.89;54.82;101840.56;4935227;29;20490;-78
2022/10/28 00:11:41;;;;;;;17.55;8.32;;;;;;;23.93;54.79;101836.16;4935260;29;20039;-75
2022/10/28 00:14:09;;;;;;;19.80;8.82;;;;;;;24.00;54.19;101833.88;4935939;29;20052;-76
2022/10/28 00:16:36;;;;;;;17.80;8.65;;;;;;;23.97;54.26;101848.19;4935582;29;20660;-76
2022/10/28 00:19:04;;;;;;;14.10;8.05;;;;;;;23.90;54.67;101836.72;4935548;29;20051;-76
2022/10/28 00:21:32;;;;;;;17.35;9.75;;;;;;;23.84;54.44;101839.81;4935374;29;20048;-76
2022/10/28 00:23:58;;;;;;;16.42;9.05;;;;;;;23.74;54.96;101831.66;4949559;29;20047;-77
2022/10/28 00:26:26;;;;;;;16.42;9.00;;;;;;;23.75;55.11;101833.28;4935319;29;20040;-75
2022/10/28 00:28:54;;;;;;;22.13;10.68;;;;;;;23.68;55.04;101830.06;4935851;29;20031;-75
2022/10/28 00:31:23;;;;;;;18.13;9.30;;;;;;;23.59;54.84;101827.13;4935393;29;20126;-76
2022/10/28 00:33:49;;;;;;;15.43;9.77;;;;;;;23.52;55.03;101821.16;4935566;29;20064;-77
2022/10/28 00:36:17;;;;;;;20.98;10.57;;;;;;;23.40;55.52;101817.97;4935631;29;20078;-77
2022/10/28 00:38:45;;;;;;;32.28;10.45;;;;;;;23.40;55.22;101829.75;4933840;29;20427;-76
2022/10/28 00:41:12;;;;;;;18.70;10.20;;;;;;;23.42;55.31;101823.97;4935670;29;20046;-76
2022/10/28 00:43:44;;;;;;;26.73;11.07;;;;;;;23.26;56.16;101827.91;4935425;29;20058;-75
2022/10/28 00:46:39;;;;;;;21.58;11.00;;;;;;;23.30;55.44;101807.03;4934776;29;20388;-77
2022/10/28 00:49:28;;;;;;;21.73;11.63;;;;;;;23.25;55.92;101815.31;4951045;28;20039;-76
2022/10/28 00:52:09;;;;;;;16.40;9.83;;;;;;;23.24;55.40;101811.75;4857510;29;20046;-76
2022/10/28 00:54:37;;;;;;;18.90;10.77;;;;;;;23.07;56.44;101819.56;4857099;29;20545;-75
2022/10/28 00:57:08;;;;;;;21.90;9.63;;;;;;;23.01;56.29;101809.72;4872701;29;20061;-74
2022/10/28 00:59:36;;;;;;;18.73;11.38;;;;;;;23.00;56.76;101821.78;4875806;29;20057;-77
2022/10/28 01:02:04;;;;;;;22.00;10.63;;;;;;;22.98;56.52;101814.94;4850893;29;20045;-76
2022/10/28 01:04:29;;;;;;;24.05;11.02;;;;;;;22.95;56.23;101815.53;4851759;29;20582;-78
2022/10/28 01:06:56;;;;;;;18.17;10.68;;;;;;;22.83;56.33;101802.16;4847090;29;20037;-75
2022/10/28 01:09:21;;;;;;;20.67;10.38;;;;;;;22.87;56.49;101797.75;4833041;29;20502;-77
2022/10/28 01:12:22;;;;;;;26.13;10.85;;;;;;;22.90;56.93;101799.13;4847016;29;20046;-77
2022/10/28 01:15:12;;;;;;;27.00;10.40;;;;;;;22.89;56.33;101797.47;4845369;29;20125;-76
2022/10/28 01:17:37;;;;;;;21.13;9.60;;;;;;;22.78;57.28;101790.41;4838793;29;20102;-77
2022/10/28 01:20:38;;;;;;;23.38;10.90;;;;;;;22.86;56.65;101792.56;4839906;29;20530;-76
2022/10/28 01:23:21;;;;;;;;;;;;;;;22.76;57.19;101787.13;4857471;29;20148;-75
2022/10/28 01:26:08;;;;;;;24.90;10.82;;;;;;;22.74;57.12;101789.34;4856872;29;19924;-77
2022/10/28 01:29:14;;;;;;;25.48;11.63;;;;;;;22.69;56.77;101784.69;4876741;29;20044;-75
2022/10/28 01:31:51;;;;;;;17.33;10.13;;;;;;;22.70;56.68;101778.94;4916083;29;20048;-76
2022/10/28 01:34:29;;;;;;;24.30;11.20;;;;;;;22.72;57.09;101783.31;4919466;29;20036;-77
2022/10/28 01:37:17;;;;;;;18.15;11.63;;;;;;;22.69;56.94;101782.78;4919202;29;20040;-75
2022/10/28 01:40:07;;;;;;;22.77;11.85;;;;;;;22.75;56.89;101780.81;4919527;29;20063;-75
2022/10/28 01:42:43;;;;;;;27.92;12.18;;;;;;;22.68;56.86;101781.13;4919480;29;20576;-78
2022/10/28 01:45:17;;;;;;;25.63;11.90;;;;;;;22.66;56.77;101777.84;4949850;28;20035;-76
2022/10/28 01:48:01;;;;;;;20.58;10.95;;;;;;;22.70;57.07;101781.66;4957759;28;20106;-75
2022/10/28 01:50:53;;;;;;;24.08;11.98;;;;;;;22.60;57.60;101773.50;4947765;28;20035;-76
2022/10/28 01:53:23;;;;;;;27.88;11.18;;;;;;;22.58;57.87;101778.44;4936987;29;20122;-76
2022/10/28 01:55:52;;;;;;;23.90;13.40;;;;;;;22.56;57.97;101772.38;4938506;29;20409;-76
2022/10/28 01:58:22;;;;;;;22.88;11.55;;;;;;;22.52;57.55;101765.03;4937897;29;20036;-77
2022/10/28 02:00:49;;;;;;;19.80;12.27;;;;;;;22.47;57.26;101765.88;4938201;29;20118;-74
2022/10/28 02:03:15;;;;;;;27.90;12.73;;;;;;;22.38;58.05;101764.00;4938144;29;20043;-76
2022/10/28 02:05:59;;;;;;;27.25;12.82;;;;;;;22.49;57.66;101763.69;4953790;28;20039;-77
2022/10/28 02:08:32;;;;;;;26.20;12.45;;;;;;;22.48;57.77;101762.06;4972013;28;20053;-74
2022/10/28 02:11:35;;;;;;;27.05;12.75;;;;;;;22.44;57.39;101758.22;4957720;28;20051;-76
2022/10/28 02:14:50;;;;;;;24.58;12.00;;;;;;;22.42;57.35;101770.56;4957379;28;20059;-75
2022/10/28 02:17:25;;;;;;;23.38;13.00;;;;;;;22.41;57.55;101766.19;4957028;28;20035;-76
2022/10/28 02:19:59;;;;;;;28.70;13.70;;;;;;;22.35;57.82;101764.56;4957617;28;20054;-76
2022/10/28 02:22:57;;;;;;;23.20;12.63;;;;;;;22.38;57.29;101751.16;4918986;29;20048;-78
2022/10/28 02:25:32;;;;;;;19.75;12.00;;;;;;;22.31;57.51;101750.59;4918781;29;20156;-77
2022/10/28 02:28:03;;;;;;;25.13;12.45;;;;;;;22.38;57.29;101744.84;4918845;29;20388;-76
2022/10/28 02:30:38;;;;;;;23.15;13.18;;;;;;;22.30;57.35;101749.00;4918580;29;20043;-77
2022/10/28 02:33:09;;;;;;;24.35;13.25;;;;;;;22.26;58.22;101747.09;4918397;29;20032;-76
2022/10/28 02:35:44;;;;;;;25.17;12.48;;;;;;;22.26;57.59;101738.88;4918412;29;20039;-76
2022/10/28 02:38:15;;;;;;;26.45;14.07;;;;;;;22.19;58.12;101743.84;4918827;29;20388;-76
2022/10/28 02:40:46;;;;;;;21.63;14.05;;;;;;;22.15;57.72;101737.28;4937796;29;20583;-76
2022/10/28 02:43:14;;;;;;;30.10;13.27;;;;;;;22.07;57.82;101735.13;4955500;28;20616;-77
2022/10/28 02:45:42;;;;;;;25.75;14.32;;;;;;;22.03;57.94;101734.03;4956675;28;20138;-76
2022/10/28 02:48:15;;;;;;;22.45;13.05;;;;;;;21.93;58.32;101726.69;4956550;28;20631;-77
2022/10/28 02:50:45;;;;;;;24.35;12.10;;;;;;;21.92;57.97;101725.03;4944949;28;20039;-76
2022/10/28 02:53:18;;;;;;;20.88;11.52;;;;;;;21.92;57.57;101722.28;4937663;29;20099;-76
2022/10/28 02:55:48;;;;;;;28.95;13.82;;;;;;;21.96;57.84;101722.56;4936611;29;20036;-76
2022/10/28 02:58:13;;;;;;;33.70;13.60;;;;;;;21.96;58.52;101722.56;4936834;29;20043;-77
2022/10/28 03:00:43;;;;;;;25.90;15.60;;;;;;;21.87;58.85;101711.38;4936456;29;20050;-77
2022/10/28 03:03:09;;;;;;;31.23;15.25;;;;;;;21.94;58.14;101706.41;4935742;29;20043;-77
2022/10/28 03:05:34;;;;;;;26.90;13.43;;;;;;;21.96;58.16;101706.13;4951017;28;20393;-76
2022/10/28 03:08:00;;;;;;;24.75;14.98;;;;;;;21.97;57.99;101711.34;4955421;29;20038;-76
2022/10/28 03:10:25;;;;;;;21.83;13.82;;;;;;;21.89;58.25;101713.84;4954917;28;20102;-77
2022/10/28 03:12:51;;;;;;;34.40;15.10;;;;;;;21.88;58.20;101720.41;4955254;28;20046;-75
2022/10/28 03:15:16;;;;;;;26.40;15.30;;;;;;;21.82;58.02;101725.88;4955118;28;20054;-76
2022/10/28 03:17:41;;;;;;;29.30;15.00;;;;;;;21.83;58.50;101721.25;4954818;28;20456;-75
2022/10/28 03:20:07;;;;;;;23.33;13.75;;;;;;;21.77;58.42;101708.63;4953427;28;20015;-77
2022/10/28 03:22:33;;;;;;;27.95;13.68;;;;;;;21.74;58.03;101706.44;4968866;28;20063;-76
2022/10/28 03:24:58;;;;;;;22.70;14.55;;;;;;;21.62;58.68;101711.44;4955291;28;20032;-76
2022/10/28 03:27:23;;;;;;;25.25;14.20;;;;;;;21.71;58.14;101709.75;4955526;28;20039;-76
2022/10/28 03:29:49;;;;;;;20.05;13.18;;;;;;;21.75;58.29;101717.13;4955768;28;20042;-75
2022/10/28 03:32:14;;;;;;;28.20;15.93;;;;;;;21.67;58.55;101720.44;4956020;28;20503;-76
2022/10/28 03:34:40;;;;;;;23.00;14.77;;;;;;;21.76;58.02;101712.47;4955722;28;20518;-76
2022/10/28 03:37:05;;;;;;;25.45;14.93;;;;;;;21.67;58.69;101719.59;4945676;28;20036;-76
2022/10/28 03:39:30;;;;;;;25.17;14.55;;;;;;;21.59;58.60;101718.25;4955500;28;20047;-75
2022/10/28 03:41:56;;;;;;;27.60;14.57;;;;;;;21.55;58.90;101716.34;4955329;28;20035;-76
2022/10/28 03:44:21;;;;;;;42.30;14.13;;;;;;;21.51;58.58;101716.09;4955836;29;20043;-76
2022/10/28 03:46:47;;;;;;;36.50;16.13;;;;;;;21.51;58.87;101713.34;4955289;28;20094;-75
2022/10/28 03:49:12;;;;;;;26.35;14.50;;;;;;;21.49;58.54;101717.44;4955297;28;20388;-76
2022/10/28 03:51:37;;;;;;;20.70;14.40;;;;;;;21.44;58.38;101707.38;4935531;29;20095;-76
2022/10/28 03:54:03;;;;;;;32.45;15.23;;;;;;;21.46;58.83;101705.13;4935387;29;20083;-76
2022/10/28 03:56:28;;;;;;;27.17;15.18;;;;;;;21.49;58.23;101707.34;4935429;29;20043;-76
2022/10/28 03:58:54;;;;;;;37.92;17.67;;;;;;;21.44;58.93;101709.28;4935742;29;20058;-76
2022/10/28 04:01:19;;;;;;;31.95;17.33;;;;;;;21.42;59.41;101706.81;4934330;29;20043;-76
2022/10/28 04:03:44;;;;;;;29.23;17.58;;;;;;;21.44;59.50;101701.91;4936670;29;20476;-77
2022/10/28 04:06:10;;;;;;;36.15;16.33;;;;;;;21.37;59.53;101704.06;4954796;28;20050;-77
2022/10/28 04:08:36;;;;;;;35.00;16.80;;;;;;;21.40;59.47;101702.72;4955035;28;20027;-76
2022/10/28 04:11:01;;;;;;;26.50;17.15;;;;;;;21.58;59.09;101702.94;4969558;28;20039;-76
2022/10/28 04:13:27;;;;;;;30.42;17.98;;;;;;;21.37;60.09;101704.06;4954456;28;20058;-76
2022/10/28 04:15:52;;;;;;;30.70;17.80;;;;;;;21.62;59.40;101704.00;4954728;28;20380;-77
2022/10/28 04:18:17;;;;;;;36.85;18.60;;;;;;;21.65;59.16;101702.66;4954616;28;20035;-78
2022/10/28 04:20:44;;;;;;;31.13;16.95;;;;;;;21.73;59.07;101696.63;4954780;28;20102;-76
2022/10/28 04:23:14;;;;;;;47.67;17.58;;;;;;;21.77;59.26;101704.00;4952651;28;20027;-76
2022/10/28 04:25:39;;;;;;;38.80;17.80;;;;;;;21.82;59.00;101695.78;4935177;29;20437;-74
2022/10/28 04:28:05;;;;;;;27.23;17.40;;;;;;;21.71;59.45;101698.81;4935332;29;20043;-76
2022/10/28 04:30:30;;;;;;;31.88;17.17;;;;;;;21.57;59.67;101703.22;4935359;29;20535;-74
2022/10/28 04:32:55;;;;;;;27.77;15.98;;;;;;;21.74;59.36;101696.31;4935294;29;20098;-75
2022/10/28 04:35:21;;;;;;;27.27;15.90;;;;;;;21.68;59.94;101683.75;4950523;29;20066;-76
2022/10/28 04:37:46;;;;;;;33.45;16.60;;;;;;;21.74;60.11;101679.91;4934921;29;20039;-75
2022/10/28 04:40:12;;;;;;;31.08;17.23;;;;;;;21.60;59.73;101680.78;4934981;29;20054;-75
2022/10/28 04:42:37;;;;;;;28.42;16.70;;;;;;;21.72;60.22;101673.91;4935603;29;20086;-76
2022/10/28 04:45:03;;;;;;;36.70;17.15;;;;;;;21.92;59.00;101670.28;4935045;29;20040;-75
2022/10/28 04:47:28;;;;;;;29.65;16.00;;;;;;;21.75;59.29;101673.34;4935011;29;20114;-75
2022/10/28 04:49:53;;;;;;;35.92;16.25;;;;;;;21.88;58.93;101674.69;4933990;29;20028;-75
2022/10/28 04:52:19;;;;;;;36.10;16.60;;;;;;;21.93;59.02;101680.16;4935375;29;20047;-76
2022/10/28 04:54:44;;;;;;;41.05;16.60;;;;;;;21.79;59.49;101668.13;4935187;29;20032;-76
2022/10/28 04:57:10;;;;;;;32.38;16.77;;;;;;;21.87;59.56;101683.19;4935305;29;20040;-75
2022/10/28 04:59:36;;;;;;;30.75;15.85;;;;;;;21.82;59.29;101681.28;4935392;29;20048;-77
2022/10/28 05:02:01;;;;;;;33.28;15.25;;;;;;;21.87;58.99;101681.28;4935705;29;20064;-75
2022/10/28 05:04:27;;;;;;;26.98;14.57;;;;;;;21.81;59.29;101677.75;4941683;29;20058;-77
2022/10/28 05:06:52;;;;;;;32.78;16.35;;;;;;;21.87;59.19;101683.19;4955038;28;20043;-76
2022/10/28 05:09:17;;;;;;;31.75;16.05;;;;;;;21.68;59.53;101675.56;4958160;28;20035;-75
2022/10/28 05:11:43;;;;;;;25.77;14.35;;;;;;;21.71;59.61;101677.75;4958070;28;20035;-76
2022/10/28 05:14:08;;;;;;;31.73;14.57;;;;;;;21.76;59.29;101666.78;4944539;28;20027;-78
2022/10/28 05:16:34;;;;;;;23.25;13.90;;;;;;;21.86;58.82;101667.88;4938662;29;20027;-76
2022/10/28 05:18:59;;;;;;;26.30;13.57;;;;;;;21.75;59.21;101667.88;4938630;29;20040;-74
2022/10/28 05:21:25;;;;;;;25.13;12.68;;;;;;;21.77;58.76;101675.81;4938893;29;20043;-75
2022/10/28 05:23:50;;;;;;;23.13;12.75;;;;;;;21.57;59.54;101681.34;4938559;29;20040;-76
2022/10/28 05:26:16;;;;;;;21.58;13.05;;;;;;;21.63;58.89;101672.84;4938911;29;20047;-71
2022/10/28 05:28:42;;;;;;;24.95;13.05;;;;;;;21.48;59.55;101677.53;4938224;29;20428;-71
2022/10/28 05:31:07;;;;;;;24.17;13.30;;;;;;;21.48;59.12;101663.88;4938387;29;20047;-71
2022/10/28 05:33:33;;;;;;;26.15;13.20;;;;;;;21.54;58.73;101671.75;4938217;29;20039;-71
2022/10/28 05:35:59;;;;;;;26.40;12.63;;;;;;;21.50;58.55;101670.66;4937861;29;20040;-71
2022/10/28 05:38:25;;;;;;;25.95;12.48;;;;;;;21.51;58.51;101666.84;4938085;29;20051;-72
2022/10/28 05:40:50;;;;;;;25.42;12.63;;;;;;;21.44;58.90;101668.25;4938326;29;20479;-71
2022/10/28 05:43:16;;;;;;;22.45;11.90;;;;;;;21.33;59.30;101670.16;4937693;29;20481;-71
2022/10/28 05:45:41;;;;;;;22.25;11.95;;;;;;;21.41;58.85;101671.53;4938110;29;20511;-73
2022/10/28 05:48:06;;;;;;;36.88;16.02;;;;;;;21.21;59.28;101666.09;4937800;29;20051;-72
2022/10/28 05:50:32;;;;;;;27.85;14.18;;;;;;;21.22;59.24;101667.72;4937551;29;20441;-73
2022/10/28 05:52:58;;;;;;;27.48;13.50;;;;;;;21.43;59.16;101661.94;4938604;29;20460;-72
2022/10/28 05:55:27;;;;;;;24.92;12.15;;;;;;;21.34;58.86;101658.16;4937503;29;20043;-72
2022/10/28 05:57:53;;;;;;;23.55;14.13;;;;;;;21.33;58.68;101664.69;4937859;29;20036;-73
2022/10/28 06:00:21;;;;;;;20.35;12.15;;;;;;;21.10;59.69;101659.00;4952104;28;20062;-71
2022/10/28 06:02:47;;;;;;;23.70;12.15;;;;;;;21.04;59.66;101663.66;4933010;29;20127;-72
2022/10/28 06:05:12;;;;;;;29.88;12.15;;;;;;;21.33;58.71;101659.22;4930337;29;20028;-72
2022/10/28 06:07:39;;;;;;;30.25;12.68;;;;;;;21.43;58.52;101661.94;4925709;29;20044;-74
2022/10/28 06:10:06;;;;;;;27.85;13.43;;;;;;;21.35;59.09;101656.22;4946173;28;20099;-71
2022/10/28 06:12:32;;;;;;;23.77;11.95;;;;;;;21.31;58.75;101661.44;4932972;29;20071;-72
2022/10/28 06:14:57;;;;;;;25.60;12.68;;;;;;;21.33;59.16;101670.16;4931373;29;20039;-72
2022/10/28 06:17:23;;;;;;;31.70;13.25;;;;;;;21.19;59.57;101671.81;4931551;29;20079;-73
2022/10/28 06:19:48;;;;;;;27.30;12.80;;;;;;;21.41;58.94;101672.34;4937671;29;20439;-74
2022/10/28 06:22:14;;;;;;;24.40;11.93;;;;;;;21.40;58.49;101678.94;4933033;29;20036;-71
2022/10/28 06:24:39;;;;;;;22.35;12.20;;;;;;;21.30;59.05;101672.66;4928193;29;20696;-73
2022/10/28 06:27:05;;;;;;;20.00;11.27;;;;;;;21.47;58.90;101687.66;4926462;29;20044;-73
2022/10/28 06:29:31;;;;;;;24.58;12.57;;;;;;;21.34;59.09;101679.19;4924431;29;20031;-71
2022/10/28 06:31:57;;;;;;;26.33;12.25;;;;;;;21.26;58.72;101679.75;4934734;29;20044;-71
2022/10/28 06:34:22;;;;;;;29.02;11.38;;;;;;;21.40;59.05;101680.84;4936957;29;20080;-72
2022/10/28 06:36:48;;;;;;;32.08;12.65;;;;;;;21.44;58.23;101674.53;4931285;29;21415;-73
2022/10/28 06:39:13;;;;;;;18.42;10.95;;;;;;;21.29;58.33;101674.56;4930854;29;20032;-73
2022/10/28 06:41:38;;;;;;;20.13;10.98;;;;;;;21.28;58.85;101685.78;4936861;29;20039;-72
2022/10/28 06:44:04;;;;;;;18.48;11.18;;;;;;;21.20;58.79;101681.69;4935822;29;20042;-70
2022/10/28 06:46:29;;;;;;;24.35;11.05;;;;;;;21.33;58.61;101683.00;4929854;29;20098;-71
2022/10/28 06:48:55;;;;;;;23.40;11.65;;;;;;;21.26;58.96;101688.78;4919318;29;20044;-70
2022/10/28 06:51:21;;;;;;;25.20;11.23;;;;;;;21.22;58.81;101689.59;4934403;29;20039;-71
2022/10/28 06:53:50;;;;;;;28.80;11.65;;;;;;;21.34;58.67;101685.50;4936583;29;20059;-73
2022/10/28 06:56:16;;;;;;;24.48;12.60;;;;;;;21.33;58.73;101693.94;4936729;29;20040;-73
2022/10/28 06:58:41;;;;;;;23.10;9.80;;;;;;;21.37;58.46;101692.31;4935992;29;20412;-71
2022/10/28 07:01:07;;;;;;;19.50;10.38;;;;;;;21.39;58.45;101698.31;4936559;29;20048;-73
2022/10/28 07:03:32;;;;;;;19.25;10.95;;;;;;;21.39;58.58;101699.16;4936520;29;20043;-71
2022/10/28 07:05:59;;;;;;;26.20;9.85;;;;;;;21.37;58.76;101693.13;4946055;29;20044;-72
2022/10/28 07:08:26;;;;;;;23.88;11.60;;;;;;;21.35;58.53;101700.78;4934896;29;20042;-73
2022/10/28 07:10:56;;;;;;;22.83;10.38;;;;;;;21.35;58.61;101695.31;4936449;29;20091;-74
2022/10/28 07:13:22;;;;;;;25.25;9.85;;;;;;;21.57;58.21;101703.22;4936201;29;20544;-74
2022/10/28 07:15:55;;;;;;;20.25;9.85;;;;;;;21.57;58.07;101705.94;4935959;29;20099;-74
2022/10/28 07:18:22;;;;;;;19.88;10.70;;;;;;;21.59;58.51;101712.78;4935290;29;20036;-73
2022/10/28 07:20:48;;;;;;;23.33;10.15;;;;;;;21.53;58.41;101715.81;4935257;29;20043;-72
2022/10/28 07:23:13;;;;;;;30.08;11.43;;;;;;;21.56;58.21;101712.53;4934437;29;20027;-72
2022/10/28 07:25:39;;;;;;;31.35;10.88;;;;;;;21.57;58.32;101714.97;4935202;29;20083;-73
2022/10/28 07:28:04;;;;;;;17.25;9.63;;;;;;;21.75;58.22;101710.84;4934995;29;20082;-73
2022/10/28 07:30:31;;;;;;;28.73;10.68;;;;;;;21.89;57.83;101706.44;4934267;29;20043;-73
2022/10/28 07:33:00;;;;;;;17.75;9.32;;;;;;;21.88;57.94;101704.78;4933970;29;20038;-73
2022/10/28 07:35:29;;;;;;;27.77;9.57;;;;;;;21.82;58.18;101705.91;4934884;29;20028;-73
2022/10/28 07:37:54;;;;;;;21.20;10.20;;;;;;;21.90;57.92;101710.81;4929677;29;20047;-73
2022/10/28 07:40:21;;;;;;;18.45;9.57;;;;;;;21.93;57.55;101709.44;4926185;29;20044;-71
2022/10/28 07:42:46;;;;;;;16.50;9.43;;;;;;;21.82;58.64;101706.72;4925179;29;20029;-72
2022/10/28 07:45:12;;;;;;;15.95;9.77;;;;;;;22.15;57.21;101721.66;4927450;29;20032;-73
2022/10/28 07:47:37;;;;;;;19.73;9.73;;;;;;;22.04;58.09;101711.03;4924808;29;20430;-71
2022/10/28 07:50:04;;;;;;;27.50;11.45;;;;;;;22.11;57.50;101706.88;4927942;29;20032;-72
2022/10/28 07:52:30;;;;;;;21.33;9.77;;;;;;;22.24;57.26;101706.28;4930335;29;20051;-71
2022/10/28 07:54:55;;;;;;;22.75;9.50;;;;;;;22.22;57.38;101702.19;4919987;29;20385;-74
2022/10/28 07:57:21;;;;;;;15.40;7.88;;;;;;;22.37;57.03;101699.34;4932531;29;20040;-71
2022/10/28 07:59:46;;;;;;;20.67;9.90;;;;;;;22.21;56.98;101708.78;4920321;29;20036;-68
2022/10/28 08:02:21;;;;;;;22.08;8.20;;;;;;;22.41;56.85;101705.91;4931332;29;20027;-69
2022/10/28 08:04:47;;;;;;;20.73;7.40;;;;;;;22.54;56.95;101697.09;4927150;29;20035;-70
2022/10/28 08:07:13;;;;;;;23.13;8.60;;;;;;;22.47;57.70;101702.88;4924872;29;20032;-69
2022/10/28 08:09:39;;;;;;;22.85;8.88;;;;;;;22.33;57.20;101707.31;4925305;29;20122;-71
2022/10/28 08:12:05;;;;;;;14.32;8.98;;;;;;;22.40;57.54;101701.56;4928894;29;20127;-70
2022/10/28 08:14:30;;;;;;;18.00;9.07;;;;;;;22.76;56.68;101697.50;4932706;29;20067;-71
2022/10/28 08:16:56;;;;;;;22.38;10.02;;;;;;;22.41;57.75;101704.00;4927304;29;20047;-69
2022/10/28 08:19:21;;;;;;;15.98;7.30;;;;;;;22.60;56.59;101704.19;4923321;29;20032;-70
2022/10/28 08:21:47;;;;;;;24.75;7.75;;;;;;;21.96;58.68;101696.00;4923787;29;20051;-70
2022/10/28 08:24:12;;;;;;;14.20;7.47;;;;;;;22.45;58.27;101702.34;4922483;29;20039;-73
2022/10/28 08:26:37;;;;;;;18.83;8.13;;;;;;;23.00;56.79;101712.13;4922798;29;20039;-72
2022/10/28 08:29:03;;;;;;;16.85;7.97;;;;;;;22.60;58.03;101709.69;4929351;29;20484;-70
2022/10/28 08:31:31;;;;;;;12.15;7.40;;;;;;;22.19;59.06;101716.47;4933577;29;20048;-72
2022/10/28 08:33:56;;;;;;;21.60;8.75;;;;;;;22.33;58.88;101726.50;4933819;28;20551;-72
2022/10/28 08:36:21;;;;;;;15.52;7.60;;;;;;;22.30;59.72;101715.28;4928745;28;20047;-71
2022/10/28 08:38:47;;;;;;;15.95;7.75;;;;;;;23.53;56.16;101718.50;4914852;29;20028;-71
2022/10/28 08:41:12;;;;;;;22.50;7.93;;;;;;;23.33;56.77;101714.03;4914932;29;20044;-70
2022/10/28 08:43:59;;;;;;;15.88;8.27;;;;;;;23.65;55.99;101709.88;4914746;29;20564;-72
2022/10/28 08:46:45;;;;;;;24.33;8.10;;;;;;;23.93;55.24;101709.00;4914564;29;20043;-69
2022/10/28 08:49:17;;;;;;;24.48;7.40;;;;;;;23.74;55.83;101708.97;4924151;29;20047;-70
2022/10/28 08:51:47;;;;;;;17.13;7.35;;;;;;;24.42;54.07;101701.25;4926129;29;20075;-70
2022/10/28 08:54:19;;;;;;;15.90;7.32;;;;;;;24.40;54.10;101703.47;4929827;29;20032;-72
2022/10/28 08:56:47;;;;;;;21.63;7.15;;;;;;;24.34;54.62;101704.66;4932722;29;20119;-71
2022/10/28 08:59:28;;;;;;;18.38;7.53;;;;;;;24.74;53.45;101703.28;4934705;29;20385;-72
2022/10/28 09:02:02;;;;;;;22.50;7.10;;;;;;;24.38;54.26;101709.28;4927705;29;20048;-72
2022/10/28 09:04:43;;;;;;;19.60;6.43;;;;;;;24.46;53.99;101707.78;4924997;29;20035;-71
2022/10/28 09:07:19;;;;;;;19.75;6.70;;;;;;;24.20;54.19;101720.22;4921309;29;20050;-72
2022/10/28 09:09:47;;;;;;;21.83;6.43;;;;;;;24.62;53.67;101722.94;4934746;29;20039;-72
2022/10/28 09:12:57;;;;;;;22.35;7.45;;;;;;;24.75;53.31;101727.72;4919176;29;20043;-71
2022/10/28 09:15:30;;;;;;;18.60;5.70;;;;;;;25.16;52.23;101731.47;4878988;29;20055;-72
2022/10/28 09:18:09;;;;;;;18.33;6.32;;;;;;;24.70;53.08;101733.28;4875341;29;20040;-72
2022/10/28 09:20:53;;;;;;;25.50;6.63;;;;;;;24.82;52.97;101719.09;4869807;29;20047;-71
2022/10/28 09:23:32;;;;;;;21.73;6.72;;;;;;;25.05;52.17;101719.00;4882119;29;20036;-72
2022/10/28 09:26:19;;;;;;;10.48;6.20;;;;;;;25.54;51.20;101709.34;4883271;29;20144;-72
2022/10/28 09:29:09;;;;;;;18.95;5.53;;;;;;;25.35;51.50;101703.91;4886289;29;20128;-71
2022/10/28 09:31:45;;;;;;;;;;;;;;;25.03;52.29;101698.41;4879000;29;20127;-71
2022/10/28 09:34:36;;;;;;;23.98;6.00;;;;;;;25.65;51.15;101702.56;4877988;29;20375;-71
2022/10/28 09:37:23;;;;;;;19.65;6.35;;;;;;;24.98;52.54;101710.28;4883499;29;20425;-71
2022/10/28 09:40:22;;;;;;;15.32;5.90;;;;;;;25.28;51.96;101704.28;4879270;29;20501;-71
2022/10/28 09:43:07;;;;;;;15.27;5.90;;;;;;;25.68;51.44;101702.75;4851195;29;20057;-71
2022/10/28 09:45:36;;;;;;;17.25;6.50;;;;;;;25.80;51.00;101705.81;4849755;29;20191;-70
2022/10/28 09:48:21;;;;;;;19.58;5.50;;;;;;;25.50;51.82;101703.66;4850747;29;20133;-70
2022/10/28 09:50:51;;;;;;;22.67;6.40;;;;;;;25.63;52.02;101710.31;4851235;29;20046;-71
2022/10/28 09:53:16;;;;;;;21.50;6.43;;;;;;;25.92;51.33;101708.88;4870097;29;20041;-71
2022/10/28 09:55:42;;;;;;;23.02;6.28;;;;;;;25.91;51.33;101715.50;4873108;29;20052;-72
2022/10/28 09:58:11;;;;;;;18.65;7.03;;;;;;;25.25;52.34;101709.59;4873557;29;20633;-72
2022/10/28 10:00:38;;;;;;;14.02;5.07;;;;;;;25.47;52.25;101711.69;4873225;29;20056;-70
2022/10/28 10:03:03;;;;;;;17.58;5.45;;;;;;;25.30;52.18;101705.94;4873177;29;20096;-73
2022/10/28 10:05:32;;;;;;;24.20;5.78;;;;;;;26.21;50.25;101696.72;4874676;29;20056;-72
2022/10/28 10:08:02;;;;;;;21.13;5.78;;;;;;;26.25;49.70;101708.75;4873394;29;20088;-72
2022/10/28 10:10:38;;;;;;;;;;;;;;;25.98;50.10;101701.31;4877079;29;20552;-73
2022/10/28 10:13:06;;;;;;;20.95;5.65;;;;;;;26.04;50.26;101700.88;4876902;29;20047;-72
2022/10/28 10:15:38;;;;;;;20.90;5.35;;;;;;;26.13;50.30;101698.28;4877204;29;20045;-73
2022/10/28 10:18:06;;;;;;;22.35;6.30;;;;;;;26.36;49.78;101699.16;4891847;29;20099;-71
2022/10/28 10:20:54;;;;;;;15.10;5.75;;;;;;;26.12;49.94;101695.84;4917483;29;20040;-74
2022/10/28 10:23:32;;;;;;;23.33;6.85;;;;;;;25.72;51.14;101703.78;4917484;29;20043;-72
2022/10/28 10:26:03;;;;;;;18.02;5.97;;;;;;;25.96;50.26;101696.09;4933422;29;20055;-72
2022/10/28 10:28:29;;;;;;;18.17;5.15;;;;;;;26.31;49.90;101705.59;4936019;29;20202;-73
2022/10/28 10:31:00;;;;;;;17.30;5.50;;;;;;;25.73;51.06;101707.34;4936222;29;20516;-73
2022/10/28 10:33:38;;;;;;;18.70;5.68;;;;;;;25.66;51.26;101717.94;4947461;28;20496;-72
2022/10/28 10:36:13;;;;;;;18.73;5.28;;;;;;;25.57;51.57;101717.03;4955251;28;20047;-71
2022/10/28 10:38:47;;;;;;;17.55;5.95;;;;;;;25.66;51.18;101709.69;4954871;28;20027;-71
2022/10/28 10:41:33;;;;;;;16.38;6.05;;;;;;;25.83;50.88;101707.94;4942100;28;20039;-71
2022/10/28 10:43:58;;;;;;;15.80;5.55;;;;;;;26.40;49.65;101698.22;4936132;28;20106;-73
2022/10/28 10:46:24;;;;;;;19.65;6.78;;;;;;;26.47;50.06;101706.06;4932358;29;20032;-73
2022/10/28 10:49:10;;;;;;;30.75;6.20;;;;;;;26.28;50.42;101710.91;4921240;29;20043;-73
2022/10/28 10:51:36;;;;;;;20.23;6.90;;;;;;;26.25;50.75;101706.84;4924455;29;20280;-71
2022/10/28 10:54:02;;;;;;;24.73;5.55;;;;;;;26.95;49.04;101712.66;4924111;29;20036;-72
2022/10/28 10:56:30;;;;;;;19.70;5.43;;;;;;;26.88;49.27;101695.75;4927343;29;20028;-72
2022/10/28 10:59:02;;;;;;;16.92;6.38;;;;;;;27.11;48.35;101691.00;4925356;29;20020;-73
2022/10/28 11:01:33;;;;;;;21.92;5.40;;;;;;;27.39;47.76;101679.53;4926601;29;20127;-71
2022/10/28 11:04:02;;;;;;;18.35;4.78;;;;;;;27.11;47.92;101678.03;4925906;29;20027;-73
2022/10/28 11:06:38;;;;;;;13.63;5.60;;;;;;;27.27;47.91;101668.22;4923944;29;20036;-72
2022/10/28 11:09:16;;;;;;;19.77;5.10;;;;;;;27.41;47.60;101659.88;4926126;29;20400;-73
2022/10/28 11:11:41;;;;;;;21.85;7.32;;;;;;;27.28;48.07;101666.28;4926424;29;20040;-71
2022/10/28 11:14:12;;;;;;;14.38;5.82;;;;;;;27.59;47.55;101656.88;4935554;29;20034;-72
2022/10/28 11:16:58;;;;;;;13.68;5.82;;;;;;;27.71;47.27;101662.59;4932005;29;20118;-71
2022/10/28 11:19:32;;;;;;;14.70;5.65;;;;;;;28.26;46.23;101659.34;4925758;29;20038;-72
2022/10/28 11:22:19;;;;;;;29.65;5.65;;;;;;;27.86;47.48;101650.28;4928912;29;20032;-73
2022/10/28 11:25:29;;;;;;;19.85;4.75;;;;;;;27.81;46.97;101640.19;4921464;29;20030;-71
2022/10/28 11:28:07;;;;;;;26.83;7.22;;;;;;;27.44;47.99;101634.41;4928273;28;20044;-72
2022/10/28 11:30:44;;;;;;;14.60;5.28;;;;;;;27.23;48.47;101631.34;4929506;29;20509;-71